sensor_id;sensor_type;location;lat;lon;timestamp;temperature;humidity
1468;DHT22;727;48.892;9.544;2023-01-29T00:01:12;1.10;99.90
1468;DHT22;727;48.892;9.544;2023-01-29T00:03:39;1.00;99.90
1468;DHT22;727;48.892;9.544;2023-01-29T00:06:08;1.00;99.90
1468;DHT22;727;48.892;9.544;2023-01-29T00:08:35;1.00;99.90
1468;DHT22;727;48.892;9.544;2023-01-29T00:11:02;1.10;99.90
1468;DHT22;727;48.892;9.544;2023-01-29T00:13:29;1.10;99.90
1468;DHT22;727;48.892;9.544;2023-01-29T00:15:57;1.00;99.90
1468;DHT22;727;48.892;9.544;2023-01-29T00:18:27;1.00;99.90
1468;DHT22;727;48.892;9.544;2023-01-29T00:20:54;1.00;99.90
1468;DHT22;727;48.892;9.544;2023-01-29T00:23:21;1.00;99.90
1468;DHT22;727;48.892;9.544;2023-01-29T00:25:48;1.00;99.90
1468;DHT22;727;48.892;9.544;2023-01-29T00:28:15;1.00;99.90
1468;DHT22;727;48.892;9.544;2023-01-29T00:30:42;1.00;99.90
1468;DHT22;727;48.892;9.544;2023-01-29T00:33:08;1.00;99.90
1468;DHT22;727;48.892;9.544;2023-01-29T00:35:41;1.00;99.90
1468;DHT22;727;48.892;9.544;2023-01-29T00:38:08;1.00;99.90
1468;DHT22;727;48.892;9.544;2023-01-29T00:40:36;1.00;99.90
1468;DHT22;727;48.892;9.544;2023-01-29T00:43:18;1.00;99.90
1468;DHT22;727;48.892;9.544;2023-01-29T00:46:02;1.00;99.90
1468;DHT22;727;48.892;9.544;2023-01-29T00:48:30;1.00;99.90
1468;DHT22;727;48.892;9.544;2023-01-29T00:50:59;1.00;99.90
1468;DHT22;727;48.892;9.544;2023-01-29T00:53:25;1.00;99.90
1468;DHT22;727;48.892;9.544;2023-01-29T00:55:52;1.00;99.90
1468;DHT22;727;48.892;9.544;2023-01-29T00:58:19;1.00;99.90
1468;DHT22;727;48.892;9.544;2023-01-29T01:00:47;1.00;99.90
1468;DHT22;727;48.892;9.544;2023-01-29T01:03:14;1.00;99.90
1468;DHT22;727;48.892;9.544;2023-01-29T01:05:40;1.00;99.90
1468;DHT22;727;48.892;9.544;2023-01-29T01:08:09;1.00;99.90
1468;DHT22;727;48.892;9.544;2023-01-29T01:10:58;1.00;99.90
1468;DHT22;727;48.892;9.544;2023-01-29T01:13:24;1.00;99.90
1468;DHT22;727;48.892;9.544;2023-01-29T01:15:51;1.00;99.90
1468;DHT22;727;48.892;9.544;2023-01-29T01:18:18;0.90;99.90
1468;DHT22;727;48.892;9.544;2023-01-29T01:20:47;1.00;99.90
1468;DHT22;727;48.892;9.544;2023-01-29T01:23:17;0.90;99.90
1468;DHT22;727;48.892;9.544;2023-01-29T01:25:44;1.00;99.90
1468;DHT22;727;48.892;9.544;2023-01-29T01:28:11;0.90;99.90
1468;DHT22;727;48.892;9.544;2023-01-29T01:30:38;0.90;99.90
1468;DHT22;727;48.892;9.544;2023-01-29T01:33:04;0.90;99.90
1468;DHT22;727;48.892;9.544;2023-01-29T01:35:31;0.90;99.90
1468;DHT22;727;48.892;9.544;2023-01-29T01:37:58;0.90;99.90
1468;DHT22;727;48.892;9.544;2023-01-29T01:40:26;1.00;99.90
1468;DHT22;727;48.892;9.544;2023-01-29T01:42:55;1.00;99.90
1468;DHT22;727;48.892;9.544;2023-01-29T01:45:28;1.00;99.90
1468;DHT22;727;48.892;9.544;2023-01-29T01:47:58;1.00;99.90
1468;DHT22;727;48.892;9.544;2023-01-29T01:50:30;0.90;99.90
1468;DHT22;727;48.892;9.544;2023-01-29T01:53:03;0.90;99.90
1468;DHT22;727;48.892;9.544;2023-01-29T01:55:35;0.90;99.90
1468;DHT22;727;48.892;9.544;2023-01-29T01:58:07;0.90;99.90
1468;DHT22;727;48.892;9.544;2023-01-29T02:00:36;1.00;99.90
1468;DHT22;727;48.892;9.544;2023-01-29T02:03:05;1.00;99.90
1468;DHT22;727;48.892;9.544;2023-01-29T02:05:51;0.90;99.90
1468;DHT22;727;48.892;9.544;2023-01-29T02:08:41;0.90;99.90
1468;DHT22;727;48.892;9.544;2023-01-29T02:11:29;0.90;99.90
1468;DHT22;727;48.892;9.544;2023-01-29T02:13:56;0.90;99.90
1468;DHT22;727;48.892;9.544;2023-01-29T02:16:23;0.90;99.90
1468;DHT22;727;48.892;9.544;2023-01-29T02:18:50;0.90;99.90
1468;DHT22;727;48.892;9.544;2023-01-29T02:21:35;0.90;99.90
1468;DHT22;727;48.892;9.544;2023-01-29T02:24:44;0.90;99.90
1468;DHT22;727;48.892;9.544;2023-01-29T02:27:19;0.90;99.90
1468;DHT22;727;48.892;9.544;2023-01-29T02:29:55;0.90;99.90
1468;DHT22;727;48.892;9.544;2023-01-29T02:32:29;1.00;99.90
1468;DHT22;727;48.892;9.544;2023-01-29T02:35:07;1.00;99.90
1468;DHT22;727;48.892;9.544;2023-01-29T02:38:00;1.00;99.90
1468;DHT22;727;48.892;9.544;2023-01-29T02:40:30;0.90;99.90
1468;DHT22;727;48.892;9.544;2023-01-29T02:43:06;0.90;99.90
1468;DHT22;727;48.892;9.544;2023-01-29T02:45:42;0.90;99.90
1468;DHT22;727;48.892;9.544;2023-01-29T02:48:15;0.90;99.90
1468;DHT22;727;48.892;9.544;2023-01-29T02:50:45;0.90;99.90
1468;DHT22;727;48.892;9.544;2023-01-29T02:53:15;0.90;99.90
1468;DHT22;727;48.892;9.544;2023-01-29T02:55:48;0.90;99.90
1468;DHT22;727;48.892;9.544;2023-01-29T02:58:20;0.90;99.90
1468;DHT22;727;48.892;9.544;2023-01-29T03:00:53;0.90;99.90
1468;DHT22;727;48.892;9.544;2023-01-29T03:03:24;0.90;99.90
1468;DHT22;727;48.892;9.544;2023-01-29T03:05:58;0.80;99.90
1468;DHT22;727;48.892;9.544;2023-01-29T03:08:32;0.80;99.90
1468;DHT22;727;48.892;9.544;2023-01-29T03:11:08;0.90;99.90
1468;DHT22;727;48.892;9.544;2023-01-29T03:13:42;0.80;99.90
1468;DHT22;727;48.892;9.544;2023-01-29T03:16:16;0.80;99.90
1468;DHT22;727;48.892;9.544;2023-01-29T03:18:50;0.90;99.90
1468;DHT22;727;48.892;9.544;2023-01-29T03:21:21;0.90;99.90
1468;DHT22;727;48.892;9.544;2023-01-29T03:24:09;0.90;99.90
1468;DHT22;727;48.892;9.544;2023-01-29T03:26:55;0.90;99.90
1468;DHT22;727;48.892;9.544;2023-01-29T03:29:41;0.90;99.90
1468;DHT22;727;48.892;9.544;2023-01-29T03:32:29;0.90;99.90
1468;DHT22;727;48.892;9.544;2023-01-29T03:34:58;0.90;99.90
1468;DHT22;727;48.892;9.544;2023-01-29T03:37:31;0.90;99.90
1468;DHT22;727;48.892;9.544;2023-01-29T03:39:59;0.90;99.90
1468;DHT22;727;48.892;9.544;2023-01-29T03:42:31;1.00;99.90
1468;DHT22;727;48.892;9.544;2023-01-29T03:45:04;1.00;99.90
1468;DHT22;727;48.892;9.544;2023-01-29T03:47:41;0.90;99.90
1468;DHT22;727;48.892;9.544;2023-01-29T03:50:18;0.90;99.90
1468;DHT22;727;48.892;9.544;2023-01-29T03:52:50;0.90;99.90
1468;DHT22;727;48.892;9.544;2023-01-29T03:55:26;0.90;99.90
1468;DHT22;727;48.892;9.544;2023-01-29T03:57:56;0.90;99.90
1468;DHT22;727;48.892;9.544;2023-01-29T04:00:27;0.80;99.90
1468;DHT22;727;48.892;9.544;2023-01-29T04:03:02;0.80;99.90
1468;DHT22;727;48.892;9.544;2023-01-29T04:05:36;0.90;99.90
1468;DHT22;727;48.892;9.544;2023-01-29T04:08:08;0.90;99.90
1468;DHT22;727;48.892;9.544;2023-01-29T04:10:38;0.90;99.90
1468;DHT22;727;48.892;9.544;2023-01-29T04:13:09;0.90;99.90
1468;DHT22;727;48.892;9.544;2023-01-29T04:15:41;0.90;99.90
1468;DHT22;727;48.892;9.544;2023-01-29T04:18:10;0.90;99.90
1468;DHT22;727;48.892;9.544;2023-01-29T04:20:37;0.90;99.90
1468;DHT22;727;48.892;9.544;2023-01-29T04:23:05;0.90;99.90
1468;DHT22;727;48.892;9.544;2023-01-29T04:25:37;0.90;99.90
1468;DHT22;727;48.892;9.544;2023-01-29T04:28:15;0.90;99.90
1468;DHT22;727;48.892;9.544;2023-01-29T04:30:47;0.90;99.90
1468;DHT22;727;48.892;9.544;2023-01-29T04:33:26;0.90;99.90
1468;DHT22;727;48.892;9.544;2023-01-29T04:36:04;0.90;99.90
1468;DHT22;727;48.892;9.544;2023-01-29T04:38:42;0.90;99.90
1468;DHT22;727;48.892;9.544;2023-01-29T04:41:19;0.90;99.90
1468;DHT22;727;48.892;9.544;2023-01-29T04:43:57;0.90;99.90
1468;DHT22;727;48.892;9.544;2023-01-29T04:46:28;0.90;99.90
1468;DHT22;727;48.892;9.544;2023-01-29T04:49:11;0.80;99.90
1468;DHT22;727;48.892;9.544;2023-01-29T04:51:48;0.80;99.90
1468;DHT22;727;48.892;9.544;2023-01-29T04:54:21;0.80;99.90
1468;DHT22;727;48.892;9.544;2023-01-29T04:56:55;0.80;99.90
1468;DHT22;727;48.892;9.544;2023-01-29T04:59:28;0.80;99.90
1468;DHT22;727;48.892;9.544;2023-01-29T05:01:58;0.90;99.90
1468;DHT22;727;48.892;9.544;2023-01-29T05:04:29;0.90;99.90
1468;DHT22;727;48.892;9.544;2023-01-29T05:06:59;0.90;99.90
1468;DHT22;727;48.892;9.544;2023-01-29T05:09:27;0.80;99.90
1468;DHT22;727;48.892;9.544;2023-01-29T05:11:54;0.80;99.90
1468;DHT22;727;48.892;9.544;2023-01-29T05:14:22;0.80;99.90
1468;DHT22;727;48.892;9.544;2023-01-29T05:16:51;0.80;99.90
1468;DHT22;727;48.892;9.544;2023-01-29T05:19:19;0.80;99.90
1468;DHT22;727;48.892;9.544;2023-01-29T05:21:48;0.80;99.90
1468;DHT22;727;48.892;9.544;2023-01-29T05:24:16;0.80;99.90
1468;DHT22;727;48.892;9.544;2023-01-29T05:26:45;0.80;99.90
1468;DHT22;727;48.892;9.544;2023-01-29T05:29:30;0.80;99.90
1468;DHT22;727;48.892;9.544;2023-01-29T05:31:57;0.80;99.90
1468;DHT22;727;48.892;9.544;2023-01-29T05:34:23;0.80;99.90
1468;DHT22;727;48.892;9.544;2023-01-29T05:36:51;0.80;99.90
1468;DHT22;727;48.892;9.544;2023-01-29T05:39:18;0.80;99.90
1468;DHT22;727;48.892;9.544;2023-01-29T05:41:45;0.80;99.90
1468;DHT22;727;48.892;9.544;2023-01-29T05:44:12;0.80;99.90
1468;DHT22;727;48.892;9.544;2023-01-29T05:46:39;0.80;99.90
1468;DHT22;727;48.892;9.544;2023-01-29T05:49:05;0.80;99.90
1468;DHT22;727;48.892;9.544;2023-01-29T05:51:32;0.80;99.90
1468;DHT22;727;48.892;9.544;2023-01-29T05:54:00;0.80;99.90
1468;DHT22;727;48.892;9.544;2023-01-29T05:56:27;0.80;99.90
1468;DHT22;727;48.892;9.544;2023-01-29T05:58:54;0.80;99.90
1468;DHT22;727;48.892;9.544;2023-01-29T06:01:22;0.90;99.90
1468;DHT22;727;48.892;9.544;2023-01-29T06:03:49;0.90;99.90
1468;DHT22;727;48.892;9.544;2023-01-29T06:06:16;0.90;99.90
1468;DHT22;727;48.892;9.544;2023-01-29T06:08:43;1.00;99.90
1468;DHT22;727;48.892;9.544;2023-01-29T06:11:12;0.90;99.90
1468;DHT22;727;48.892;9.544;2023-01-29T06:13:39;0.90;99.90
1468;DHT22;727;48.892;9.544;2023-01-29T06:16:07;0.90;99.90
1468;DHT22;727;48.892;9.544;2023-01-29T06:18:35;0.90;99.90
1468;DHT22;727;48.892;9.544;2023-01-29T06:21:03;0.90;99.90
1468;DHT22;727;48.892;9.544;2023-01-29T06:23:30;0.80;99.90
1468;DHT22;727;48.892;9.544;2023-01-29T06:25:59;0.80;99.90
1468;DHT22;727;48.892;9.544;2023-01-29T06:28:27;0.80;99.90
1468;DHT22;727;48.892;9.544;2023-01-29T06:30:56;0.80;99.90
1468;DHT22;727;48.892;9.544;2023-01-29T06:33:24;0.70;99.90
1468;DHT22;727;48.892;9.544;2023-01-29T06:35:55;0.70;99.90
1468;DHT22;727;48.892;9.544;2023-01-29T06:38:22;0.70;99.90
1468;DHT22;727;48.892;9.544;2023-01-29T06:40:48;0.70;99.90
1468;DHT22;727;48.892;9.544;2023-01-29T06:43:15;0.80;99.90
1468;DHT22;727;48.892;9.544;2023-01-29T06:45:47;0.80;99.90
1468;DHT22;727;48.892;9.544;2023-01-29T06:48:14;0.80;99.90
1468;DHT22;727;48.892;9.544;2023-01-29T06:50:41;0.80;99.90
1468;DHT22;727;48.892;9.544;2023-01-29T06:53:07;0.80;99.90
1468;DHT22;727;48.892;9.544;2023-01-29T06:55:34;0.80;99.90
1468;DHT22;727;48.892;9.544;2023-01-29T06:58:04;0.80;99.90
1468;DHT22;727;48.892;9.544;2023-01-29T07:00:31;0.80;99.90
1468;DHT22;727;48.892;9.544;2023-01-29T07:02:59;0.80;99.90
1468;DHT22;727;48.892;9.544;2023-01-29T07:05:26;0.80;99.90
1468;DHT22;727;48.892;9.544;2023-01-29T07:07:52;0.80;99.90
1468;DHT22;727;48.892;9.544;2023-01-29T07:10:19;0.80;99.90
1468;DHT22;727;48.892;9.544;2023-01-29T07:12:46;0.80;99.90
1468;DHT22;727;48.892;9.544;2023-01-29T07:15:13;0.90;99.90
1468;DHT22;727;48.892;9.544;2023-01-29T07:17:43;0.90;99.90
1468;DHT22;727;48.892;9.544;2023-01-29T07:20:12;0.90;99.90
1468;DHT22;727;48.892;9.544;2023-01-29T07:22:38;0.90;99.90
1468;DHT22;727;48.892;9.544;2023-01-29T07:25:06;0.90;99.90
1468;DHT22;727;48.892;9.544;2023-01-29T07:27:33;0.90;99.90
1468;DHT22;727;48.892;9.544;2023-01-29T07:30:00;0.90;99.90
1468;DHT22;727;48.892;9.544;2023-01-29T07:32:27;1.00;99.90
1468;DHT22;727;48.892;9.544;2023-01-29T07:34:54;1.10;99.90
1468;DHT22;727;48.892;9.544;2023-01-29T07:37:22;1.10;99.90
1468;DHT22;727;48.892;9.544;2023-01-29T07:39:49;1.10;99.90
1468;DHT22;727;48.892;9.544;2023-01-29T07:42:15;1.10;99.90
1468;DHT22;727;48.892;9.544;2023-01-29T07:44:42;1.10;99.90
1468;DHT22;727;48.892;9.544;2023-01-29T07:47:09;1.10;99.90
1468;DHT22;727;48.892;9.544;2023-01-29T07:49:36;1.10;99.90
1468;DHT22;727;48.892;9.544;2023-01-29T07:52:02;1.10;99.90
1468;DHT22;727;48.892;9.544;2023-01-29T07:54:31;1.10;99.90
1468;DHT22;727;48.892;9.544;2023-01-29T07:56:57;1.20;99.90
1468;DHT22;727;48.892;9.544;2023-01-29T07:59:24;1.20;99.90
1468;DHT22;727;48.892;9.544;2023-01-29T08:01:51;1.20;99.90
1468;DHT22;727;48.892;9.544;2023-01-29T08:04:17;1.10;99.90
1468;DHT22;727;48.892;9.544;2023-01-29T08:06:44;1.20;99.90
1468;DHT22;727;48.892;9.544;2023-01-29T08:09:11;1.20;99.90
1468;DHT22;727;48.892;9.544;2023-01-29T08:11:39;1.30;99.90
1468;DHT22;727;48.892;9.544;2023-01-29T08:14:05;1.30;99.90
1468;DHT22;727;48.892;9.544;2023-01-29T08:16:33;1.40;99.90
1468;DHT22;727;48.892;9.544;2023-01-29T08:19:01;1.40;99.90
1468;DHT22;727;48.892;9.544;2023-01-29T08:21:27;1.50;99.90
1468;DHT22;727;48.892;9.544;2023-01-29T08:23:54;1.50;99.90
1468;DHT22;727;48.892;9.544;2023-01-29T08:26:21;1.60;99.90
1468;DHT22;727;48.892;9.544;2023-01-29T08:28:49;1.60;99.90
1468;DHT22;727;48.892;9.544;2023-01-29T08:31:18;1.60;99.90
1468;DHT22;727;48.892;9.544;2023-01-29T08:33:45;1.60;99.90
1468;DHT22;727;48.892;9.544;2023-01-29T08:36:12;1.60;99.90
1468;DHT22;727;48.892;9.544;2023-01-29T08:38:39;1.60;99.90
1468;DHT22;727;48.892;9.544;2023-01-29T08:41:07;1.60;99.90
1468;DHT22;727;48.892;9.544;2023-01-29T08:43:34;1.70;99.90
1468;DHT22;727;48.892;9.544;2023-01-29T08:46:04;1.70;99.90
1468;DHT22;727;48.892;9.544;2023-01-29T08:48:31;1.80;99.90
1468;DHT22;727;48.892;9.544;2023-01-29T08:50:58;1.80;99.90
1468;DHT22;727;48.892;9.544;2023-01-29T08:53:26;1.90;99.90
1468;DHT22;727;48.892;9.544;2023-01-29T08:55:53;1.90;99.90
1468;DHT22;727;48.892;9.544;2023-01-29T08:58:20;1.80;99.90
1468;DHT22;727;48.892;9.544;2023-01-29T09:00:46;1.80;99.90
1468;DHT22;727;48.892;9.544;2023-01-29T09:03:14;1.90;99.90
1468;DHT22;727;48.892;9.544;2023-01-29T09:05:41;2.00;99.90
1468;DHT22;727;48.892;9.544;2023-01-29T09:08:08;2.00;99.90
1468;DHT22;727;48.892;9.544;2023-01-29T09:10:35;2.00;99.90
1468;DHT22;727;48.892;9.544;2023-01-29T09:13:02;2.10;99.90
1468;DHT22;727;48.892;9.544;2023-01-29T09:15:29;2.10;99.90
1468;DHT22;727;48.892;9.544;2023-01-29T09:17:56;2.10;99.90
1468;DHT22;727;48.892;9.544;2023-01-29T09:20:24;2.20;99.90
1468;DHT22;727;48.892;9.544;2023-01-29T09:22:50;2.30;99.50
1468;DHT22;727;48.892;9.544;2023-01-29T09:25:20;2.40;98.90
1468;DHT22;727;48.892;9.544;2023-01-29T09:27:47;2.40;98.50
1468;DHT22;727;48.892;9.544;2023-01-29T09:30:14;2.40;98.10
1468;DHT22;727;48.892;9.544;2023-01-29T09:32:40;2.30;98.00
1468;DHT22;727;48.892;9.544;2023-01-29T09:35:08;2.30;97.90
1468;DHT22;727;48.892;9.544;2023-01-29T09:37:36;2.20;97.90
1468;DHT22;727;48.892;9.544;2023-01-29T09:40:03;2.20;98.00
1468;DHT22;727;48.892;9.544;2023-01-29T09:42:38;2.20;98.10
1468;DHT22;727;48.892;9.544;2023-01-29T09:45:12;2.30;98.20
1468;DHT22;727;48.892;9.544;2023-01-29T09:47:40;2.40;98.20
1468;DHT22;727;48.892;9.544;2023-01-29T09:50:16;2.50;98.00
1468;DHT22;727;48.892;9.544;2023-01-29T09:52:48;2.60;97.90
1468;DHT22;727;48.892;9.544;2023-01-29T09:55:21;2.70;97.60
1468;DHT22;727;48.892;9.544;2023-01-29T09:57:49;2.70;97.70
1468;DHT22;727;48.892;9.544;2023-01-29T10:00:23;2.60;97.60
1468;DHT22;727;48.892;9.544;2023-01-29T10:03:16;2.70;97.60
1468;DHT22;727;48.892;9.544;2023-01-29T10:05:58;2.80;97.80
1468;DHT22;727;48.892;9.544;2023-01-29T10:08:44;2.90;97.50
1468;DHT22;727;48.892;9.544;2023-01-29T10:11:23;3.10;97.20
1468;DHT22;727;48.892;9.544;2023-01-29T10:14:03;3.00;97.00
1468;DHT22;727;48.892;9.544;2023-01-29T10:16:43;3.10;96.70
1468;DHT22;727;48.892;9.544;2023-01-29T10:19:34;3.10;96.60
1468;DHT22;727;48.892;9.544;2023-01-29T10:22:36;3.10;96.70
1468;DHT22;727;48.892;9.544;2023-01-29T10:25:13;3.20;96.30
1468;DHT22;727;48.892;9.544;2023-01-29T10:27:46;3.20;96.40
1468;DHT22;727;48.892;9.544;2023-01-29T10:30:25;3.20;96.40
1468;DHT22;727;48.892;9.544;2023-01-29T10:32:53;3.20;96.60
1468;DHT22;727;48.892;9.544;2023-01-29T10:35:22;3.20;96.40
1468;DHT22;727;48.892;9.544;2023-01-29T10:37:52;3.20;95.90
1468;DHT22;727;48.892;9.544;2023-01-29T10:40:22;3.30;96.10
1468;DHT22;727;48.892;9.544;2023-01-29T10:42:57;3.30;96.30
1468;DHT22;727;48.892;9.544;2023-01-29T10:45:30;3.40;95.80
1468;DHT22;727;48.892;9.544;2023-01-29T10:48:18;3.30;95.70
1468;DHT22;727;48.892;9.544;2023-01-29T10:50:50;3.30;96.00
1468;DHT22;727;48.892;9.544;2023-01-29T10:53:28;3.10;95.80
1468;DHT22;727;48.892;9.544;2023-01-29T10:56:06;3.10;96.00
1468;DHT22;727;48.892;9.544;2023-01-29T10:58:42;3.20;96.30
1468;DHT22;727;48.892;9.544;2023-01-29T11:01:11;3.40;96.30
1468;DHT22;727;48.892;9.544;2023-01-29T11:03:38;3.50;96.00
1468;DHT22;727;48.892;9.544;2023-01-29T11:06:11;3.60;95.70
1468;DHT22;727;48.892;9.544;2023-01-29T11:08:42;3.60;95.30
1468;DHT22;727;48.892;9.544;2023-01-29T11:11:14;3.40;95.10
1468;DHT22;727;48.892;9.544;2023-01-29T11:13:44;3.30;95.40
1468;DHT22;727;48.892;9.544;2023-01-29T11:16:12;3.30;95.50
1468;DHT22;727;48.892;9.544;2023-01-29T11:19:02;3.40;95.80
1468;DHT22;727;48.892;9.544;2023-01-29T11:21:29;3.60;96.10
1468;DHT22;727;48.892;9.544;2023-01-29T11:24:09;4.00;95.70
1468;DHT22;727;48.892;9.544;2023-01-29T11:26:39;4.20;94.90
1468;DHT22;727;48.892;9.544;2023-01-29T11:29:29;4.20;94.00
1468;DHT22;727;48.892;9.544;2023-01-29T11:31:58;4.20;94.00
1468;DHT22;727;48.892;9.544;2023-01-29T11:34:26;4.00;94.10
1468;DHT22;727;48.892;9.544;2023-01-29T11:36:56;3.70;94.40
1468;DHT22;727;48.892;9.544;2023-01-29T11:39:24;3.50;94.60
1468;DHT22;727;48.892;9.544;2023-01-29T11:41:55;3.50;94.80
1468;DHT22;727;48.892;9.544;2023-01-29T11:44:31;3.50;95.00
1468;DHT22;727;48.892;9.544;2023-01-29T11:47:10;3.50;94.80
1468;DHT22;727;48.892;9.544;2023-01-29T11:49:37;3.50;94.80
1468;DHT22;727;48.892;9.544;2023-01-29T11:52:07;3.50;95.00
1468;DHT22;727;48.892;9.544;2023-01-29T11:54:37;3.40;94.90
1468;DHT22;727;48.892;9.544;2023-01-29T11:57:20;3.40;95.10
1468;DHT22;727;48.892;9.544;2023-01-29T11:59:50;3.60;95.50
1468;DHT22;727;48.892;9.544;2023-01-29T12:02:24;3.60;95.30
1468;DHT22;727;48.892;9.544;2023-01-29T12:04:56;3.90;94.80
1468;DHT22;727;48.892;9.544;2023-01-29T12:07:24;4.10;94.50
1468;DHT22;727;48.892;9.544;2023-01-29T12:09:53;4.40;93.90
1468;DHT22;727;48.892;9.544;2023-01-29T12:12:34;4.60;93.60
1468;DHT22;727;48.892;9.544;2023-01-29T12:15:24;5.20;93.30
1468;DHT22;727;48.892;9.544;2023-01-29T12:17:59;5.40;91.70
1468;DHT22;727;48.892;9.544;2023-01-29T12:20:30;5.30;91.60
1468;DHT22;727;48.892;9.544;2023-01-29T12:23:05;5.40;91.40
1468;DHT22;727;48.892;9.544;2023-01-29T12:25:42;5.90;91.00
1468;DHT22;727;48.892;9.544;2023-01-29T12:28:21;6.20;90.20
1468;DHT22;727;48.892;9.544;2023-01-29T12:30:54;6.20;88.70
1468;DHT22;727;48.892;9.544;2023-01-29T12:33:35;6.70;88.50
1468;DHT22;727;48.892;9.544;2023-01-29T12:36:10;7.00;87.10
1468;DHT22;727;48.892;9.544;2023-01-29T12:38:37;7.20;85.40
1468;DHT22;727;48.892;9.544;2023-01-29T12:41:07;7.00;84.50
1468;DHT22;727;48.892;9.544;2023-01-29T12:43:41;6.70;84.90
1468;DHT22;727;48.892;9.544;2023-01-29T12:46:15;6.10;86.00
1468;DHT22;727;48.892;9.544;2023-01-29T12:48:44;5.60;87.30
1468;DHT22;727;48.892;9.544;2023-01-29T12:51:16;5.20;89.00
1468;DHT22;727;48.892;9.544;2023-01-29T12:53:46;4.80;90.10
1468;DHT22;727;48.892;9.544;2023-01-29T12:56:21;4.50;90.50
1468;DHT22;727;48.892;9.544;2023-01-29T12:58:53;4.40;91.00
1468;DHT22;727;48.892;9.544;2023-01-29T13:01:26;4.30;91.30
1468;DHT22;727;48.892;9.544;2023-01-29T13:04:00;4.20;91.70
1468;DHT22;727;48.892;9.544;2023-01-29T13:06:30;4.20;91.90
1468;DHT22;727;48.892;9.544;2023-01-29T13:09:02;4.10;92.10
1468;DHT22;727;48.892;9.544;2023-01-29T13:11:34;4.00;92.00
1468;DHT22;727;48.892;9.544;2023-01-29T13:14:08;3.90;92.20
1468;DHT22;727;48.892;9.544;2023-01-29T13:16:41;3.80;92.40
1468;DHT22;727;48.892;9.544;2023-01-29T13:19:17;3.90;92.40
1468;DHT22;727;48.892;9.544;2023-01-29T13:21:46;4.00;92.50
1468;DHT22;727;48.892;9.544;2023-01-29T13:24:16;3.90;92.80
1468;DHT22;727;48.892;9.544;2023-01-29T13:26:44;4.00;92.90
1468;DHT22;727;48.892;9.544;2023-01-29T13:29:20;4.20;92.80
1468;DHT22;727;48.892;9.544;2023-01-29T13:31:49;4.10;92.20
1468;DHT22;727;48.892;9.544;2023-01-29T13:34:20;4.00;92.50
1468;DHT22;727;48.892;9.544;2023-01-29T13:36:51;4.00;92.70
1468;DHT22;727;48.892;9.544;2023-01-29T13:39:23;3.90;92.70
1468;DHT22;727;48.892;9.544;2023-01-29T13:41:52;3.80;92.70
1468;DHT22;727;48.892;9.544;2023-01-29T13:44:24;3.80;92.80
1468;DHT22;727;48.892;9.544;2023-01-29T13:46:55;3.90;92.90
1468;DHT22;727;48.892;9.544;2023-01-29T13:49:32;4.10;92.80
1468;DHT22;727;48.892;9.544;2023-01-29T13:52:26;4.20;92.70
1468;DHT22;727;48.892;9.544;2023-01-29T13:54:56;4.20;92.80
1468;DHT22;727;48.892;9.544;2023-01-29T13:57:53;4.10;92.80
1468;DHT22;727;48.892;9.544;2023-01-29T14:03:52;4.00;93.00
1468;DHT22;727;48.892;9.544;2023-01-29T14:06:43;4.00;93.20
1468;DHT22;727;48.892;9.544;2023-01-29T14:09:30;4.10;93.00
1468;DHT22;727;48.892;9.544;2023-01-29T14:11:57;4.00;92.90
1468;DHT22;727;48.892;9.544;2023-01-29T14:15:03;3.90;93.00
1468;DHT22;727;48.892;9.544;2023-01-29T14:17:30;3.80;93.00
1468;DHT22;727;48.892;9.544;2023-01-29T14:20:01;3.70;93.50
1468;DHT22;727;48.892;9.544;2023-01-29T14:22:29;3.70;93.80
1468;DHT22;727;48.892;9.544;2023-01-29T14:24:59;3.60;94.40
1468;DHT22;727;48.892;9.544;2023-01-29T14:27:27;3.60;94.20
1468;DHT22;727;48.892;9.544;2023-01-29T14:29:58;3.50;94.20
1468;DHT22;727;48.892;9.544;2023-01-29T14:32:26;3.40;94.40
1468;DHT22;727;48.892;9.544;2023-01-29T14:34:59;3.50;94.60
1468;DHT22;727;48.892;9.544;2023-01-29T14:37:32;3.40;94.40
1468;DHT22;727;48.892;9.544;2023-01-29T14:40:13;3.40;94.40
1468;DHT22;727;48.892;9.544;2023-01-29T14:42:45;3.40;94.80
1468;DHT22;727;48.892;9.544;2023-01-29T14:45:25;3.40;95.00
1468;DHT22;727;48.892;9.544;2023-01-29T14:48:00;3.40;95.00
1468;DHT22;727;48.892;9.544;2023-01-29T14:50:46;3.40;95.20
1468;DHT22;727;48.892;9.544;2023-01-29T14:53:18;3.30;95.20
1468;DHT22;727;48.892;9.544;2023-01-29T14:55:51;3.40;95.30
1468;DHT22;727;48.892;9.544;2023-01-29T14:58:24;3.30;95.00
1468;DHT22;727;48.892;9.544;2023-01-29T15:00:54;3.30;94.90
1468;DHT22;727;48.892;9.544;2023-01-29T15:03:34;3.40;94.70
1468;DHT22;727;48.892;9.544;2023-01-29T15:06:05;3.40;94.60
1468;DHT22;727;48.892;9.544;2023-01-29T15:08:37;3.40;95.10
1468;DHT22;727;48.892;9.544;2023-01-29T15:11:10;3.50;94.90
1468;DHT22;727;48.892;9.544;2023-01-29T15:14:01;3.50;95.00
1468;DHT22;727;48.892;9.544;2023-01-29T15:16:37;3.60;94.50
1468;DHT22;727;48.892;9.544;2023-01-29T15:19:13;3.50;94.40
1468;DHT22;727;48.892;9.544;2023-01-29T15:22:05;3.40;95.00
1468;DHT22;727;48.892;9.544;2023-01-29T15:24:33;3.30;95.10
1468;DHT22;727;48.892;9.544;2023-01-29T15:27:00;3.20;95.20
1468;DHT22;727;48.892;9.544;2023-01-29T15:29:28;3.10;95.60
1468;DHT22;727;48.892;9.544;2023-01-29T15:31:55;3.00;96.00
1468;DHT22;727;48.892;9.544;2023-01-29T15:34:22;2.90;96.30
1468;DHT22;727;48.892;9.544;2023-01-29T15:36:49;2.90;96.60
1468;DHT22;727;48.892;9.544;2023-01-29T15:39:19;2.80;96.70
1468;DHT22;727;48.892;9.544;2023-01-29T15:41:47;2.70;97.00
1468;DHT22;727;48.892;9.544;2023-01-29T15:44:16;2.50;97.20
1468;DHT22;727;48.892;9.544;2023-01-29T15:46:46;2.40;97.50
1468;DHT22;727;48.892;9.544;2023-01-29T15:49:18;2.20;97.70
1468;DHT22;727;48.892;9.544;2023-01-29T15:51:46;2.10;98.10
1468;DHT22;727;48.892;9.544;2023-01-29T15:54:14;2.00;98.50
1468;DHT22;727;48.892;9.544;2023-01-29T15:56:45;1.90;98.70
1468;DHT22;727;48.892;9.544;2023-01-29T15:59:17;1.80;99.10
1468;DHT22;727;48.892;9.544;2023-01-29T16:01:44;1.70;99.40
1468;DHT22;727;48.892;9.544;2023-01-29T16:04:14;1.50;99.60
1468;DHT22;727;48.892;9.544;2023-01-29T16:06:43;1.40;99.90
1468;DHT22;727;48.892;9.544;2023-01-29T16:09:16;1.30;99.90
1468;DHT22;727;48.892;9.544;2023-01-29T16:11:47;1.10;99.90
1468;DHT22;727;48.892;9.544;2023-01-29T16:14:17;1.00;99.90
1468;DHT22;727;48.892;9.544;2023-01-29T16:16:45;0.90;99.90
1468;DHT22;727;48.892;9.544;2023-01-29T16:19:18;0.80;99.90
1468;DHT22;727;48.892;9.544;2023-01-29T16:21:50;0.70;99.90
1468;DHT22;727;48.892;9.544;2023-01-29T16:24:18;0.60;99.90
1468;DHT22;727;48.892;9.544;2023-01-29T16:26:50;0.50;99.90
1468;DHT22;727;48.892;9.544;2023-01-29T16:29:20;0.40;99.90
1468;DHT22;727;48.892;9.544;2023-01-29T16:31:51;0.40;99.90
1468;DHT22;727;48.892;9.544;2023-01-29T16:34:23;0.30;99.90
1468;DHT22;727;48.892;9.544;2023-01-29T16:36:51;0.20;99.90
1468;DHT22;727;48.892;9.544;2023-01-29T16:39:21;0.20;99.90
1468;DHT22;727;48.892;9.544;2023-01-29T16:44:51;0.00;99.90
1468;DHT22;727;48.892;9.544;2023-01-29T16:47:27;-0.10;99.90
1468;DHT22;727;48.892;9.544;2023-01-29T16:49:55;-0.10;99.90
1468;DHT22;727;48.892;9.544;2023-01-29T16:52:24;-0.20;99.90
1468;DHT22;727;48.892;9.544;2023-01-29T16:54:52;-0.30;99.90
1468;DHT22;727;48.892;9.544;2023-01-29T16:57:26;-0.30;99.90
1468;DHT22;727;48.892;9.544;2023-01-29T16:59:56;-0.30;99.90
1468;DHT22;727;48.892;9.544;2023-01-29T17:02:26;-0.40;99.90
1468;DHT22;727;48.892;9.544;2023-01-29T17:04:57;-0.50;99.90
1468;DHT22;727;48.892;9.544;2023-01-29T17:07:25;-0.50;99.90
1468;DHT22;727;48.892;9.544;2023-01-29T17:09:54;-0.50;99.90